North Manheim, Pennsylvania
Current Conditions -  °F | °C
As of 6:58 PM on Saturday 22 Nov 2014 (Local Time) from KMUI Reporting Station
Overcast Overcast  
Wind Chill:   Ceiling: 7000
Heat Index:   Visibility: 10mi
Dew Point: -8°   Wind: 0mph
Humidity: 42%   Direction: NA
Pressure: 30.26"   Gusts: NA
Location:  40.6882°N, 76.264°W
Report Text: KMUI 222358Z AUTO 00000KT 10SM FEW041 OVC070 04/M08 A3026 RMK AO2 SLP257 60000 T00381080 10046 20032 55005 $
Loading
Personal Weather Stations






























Interactive Weather Map New forecast layout! Learn more

10-Day Weather Forecast

Advertisements
Track Severe Weather on mobile